Washington Executive (W32)
Clinton, MD
Field Elevation: 249
Lat: 38°44.89N  Long: 76°55.97W
CTAF/Unicom Freq: 122.8000
   
    
Weather Advisories
2018-09-24   20:12 Z
Altimeter 30.33" Hg
Wind 095° @ 8 KT
Gusts 14 KT
Temperature 18° C (64° F)
Dewpoint 17° C (63° F)
Relative Humidity 96%
Density Altitude 207 feet
Condensation Altitude 605 feet
Wind and Runways
Indicated Runway = 05
Headwind = 6 kt
Crosswind = 6 kt
History
 
 
 
More Info
All DigiWx sites map
Weather Radar
NOAA Forecast
 
Airport IQ 5010
(HMIEM) Shock Trauma Ctr
(26N) Ocean City
 
about DigiWx
 
FAA Disclaimer: The data displayed is for advisory purposes only and is not to be used for flight planning or operations. For official data, please call (not available) to hear the current automated AWOS voice message.
  METAR W32 242012Z AUTO 10008G14KT 18/17 A3033